Time;durP1;ratioP1;P1;durP2;ratioP2;P2;SDS_P1;SDS_P2;PMS_P1;PMS_P2;Temp;Humidity;BMP_temperature;BMP_pressure;BME280_temperature;BME280_humidity;BME280_pressure;Samples;Min_cycle;Max_cycle;Signal;HPM_P1;HPM_P2
2022/09/08 00:01:44;;;;;;;;;;;;;;;;;;5069895;28;19941;-79
2022/09/08 00:04:10;;;;;;;;;;;;;;;;;;5070228;28;19958;-79
2022/09/08 00:06:36;;;;;;;;;;;;;;;;;;5071345;28;20387;-80
2022/09/08 00:09:01;;;;;;;;;;;;;;;;;;5072748;28;20303;-80
2022/09/08 00:11:28;;;;;;;;;;;;;;;;;;5037618;28;19908;-80
2022/09/08 00:13:53;;;;;;;;;;;;;;;;;;5072701;28;19912;-80
2022/09/08 00:16:18;;;;;;;;;;;;;;;;;;5050776;28;20394;-79
2022/09/08 00:18:44;;;;;;;;;;;;;;;;;;5050344;28;19913;-80
2022/09/08 00:21:09;;;;;;;;;;;;;;;;;;5072404;28;19920;-80
2022/09/08 00:23:35;;;;;;;;;;;;;;;;;;5054198;28;19913;-79
2022/09/08 00:26:00;;;;;;;;;;;;;;;;;;5054624;28;19912;-80
2022/09/08 00:28:25;;;;;;;;;;;;;;;;;;5083246;28;19966;-79
2022/09/08 00:30:51;;;;;;;;;;;;;;;;;;5092371;28;20370;-79
2022/09/08 00:33:16;;;;;;;;;;;;;;;;;;5082115;28;19912;-80
2022/09/08 00:35:41;;;;;;;;;;;;;;;;;;5092089;28;19912;-78
2022/09/08 00:38:07;;;;;;;;;;;;;;;;;;5090710;28;19912;-79
2022/09/08 00:40:32;;;;;;;;;;;;;;;;;;5092159;28;20365;-79
2022/09/08 00:42:58;;;;;;;;;;;;;;;;;;5083078;28;19916;-78
2022/09/08 00:45:23;;;;;;;;;;;;;;;;;;5090061;28;19952;-79
2022/09/08 00:47:48;;;;;;;;;;;;;;;;;;5090913;28;19912;-79
2022/09/08 00:50:14;;;;;;;;;;;;;;;;;;5090307;28;20370;-79
2022/09/08 00:52:39;;;;;;;;;;;;;;;;;;5091632;28;19912;-80
2022/09/08 00:55:07;;;;;;;;;;;;;;;;;;5090140;28;19908;-80
2022/09/08 00:57:32;;;;;;;;;;;;;;;;;;5091921;28;19915;-79
2022/09/08 00:59:58;;;;;;;;;;;;;;;;;;5091267;28;20294;-79
2022/09/08 01:02:24;;;;;;;;;;;;;;;;;;5092537;28;19919;-79
2022/09/08 01:04:49;;;;;;;;;;;;;;;;;;5082028;28;19947;-78
2022/09/08 01:12:46;;;;;;;;;;;;;;;;;;5092018;28;19934;-80
2022/09/08 01:15:11;;;;;;;;;;;;;;;;;;5077887;28;19931;-79
2022/09/08 01:17:37;;;;;;;;;;;;;;;;;;5091992;28;19911;-80
2022/09/08 01:20:02;;;;;;;;;;;;;;;;;;5095868;28;19908;-79
2022/09/08 01:22:28;;;;;;;;;;;;;;;;;;5091235;28;20342;-79
2022/09/08 01:24:53;;;;;;;;;;;;;;;;;;5095689;28;19943;-79
2022/09/08 01:27:21;;;;;;;;;;;;;;;;;;5091903;28;19958;-79
2022/09/08 01:29:47;;;;;;;;;;;;;;;;;;5095302;28;19920;-78
2022/09/08 01:32:12;;;;;;;;;;;;;;;;;;5094471;28;20370;-79
2022/09/08 01:34:38;;;;;;;;;;;;;;;;;;5076941;28;19915;-78
2022/09/08 01:37:03;;;;;;;;;;;;;;;;;;5094447;28;19938;-79
2022/09/08 01:39:29;;;;;;;;;;;;;;;;;;5089867;28;19909;-78
2022/09/08 01:41:54;;;;;;;;;;;;;;;;;;5077238;28;19912;-78
2022/09/08 01:44:19;;;;;;;;;;;;;;;;;;5095739;28;19916;-79
2022/09/08 01:46:45;;;;;;;;;;;;;;;;;;5092197;28;19912;-78
2022/09/08 01:49:10;;;;;;;;;;;;;;;;;;5094030;28;19915;-79
2022/09/08 01:51:35;;;;;;;;;;;;;;;;;;5094116;28;19920;-79
2022/09/08 01:54:01;;;;;;;;;;;;;;;;;;5093875;28;19907;-79
2022/09/08 01:56:26;;;;;;;;;;;;;;;;;;5093692;28;19916;-79
2022/09/08 01:58:51;;;;;;;;;;;;;;;;;;5094173;28;19930;-80
2022/09/08 02:01:17;;;;;;;;;;;;;;;;;;5094834;28;20402;-79
2022/09/08 02:03:42;;;;;;;;;;;;;;;;;;5094810;28;19907;-79
2022/09/08 02:06:07;;;;;;;;;;;;;;;;;;5093593;28;19911;-79
2022/09/08 02:08:33;;;;;;;;;;;;;;;;;;5090378;28;20023;-79
2022/09/08 02:10:59;;;;;;;;;;;;;;;;;;5094614;28;19908;-78
2022/09/08 02:13:24;;;;;;;;;;;;;;;;;;5093710;28;20035;-78
2022/09/08 02:15:50;;;;;;;;;;;;;;;;;;5089979;28;19912;-78
2022/09/08 02:18:15;;;;;;;;;;;;;;;;;;5089608;28;20374;-78
2022/09/08 02:20:40;;;;;;;;;;;;;;;;;;5091926;28;19908;-79
2022/09/08 02:23:06;;;;;;;;;;;;;;;;;;5093281;28;19918;-79
2022/09/08 02:25:31;;;;;;;;;;;;;;;;;;5091779;28;19912;-78
2022/09/08 02:27:56;;;;;;;;;;;;;;;;;;5093104;28;19923;-79
2022/09/08 02:30:22;;;;;;;;;;;;;;;;;;5084041;28;19919;-79
2022/09/08 02:32:49;;;;;;;;;;;;;;;;;;5093013;28;19919;-79
2022/09/08 02:35:14;;;;;;;;;;;;;;;;;;5083257;28;19908;-80
2022/09/08 02:37:40;;;;;;;;;;;;;;;;;;5091535;28;19923;-80
2022/09/08 02:40:05;;;;;;;;;;;;;;;;;;5093261;28;20339;-80
2022/09/08 02:42:31;;;;;;;;;;;;;;;;;;5092766;28;19938;-82
2022/09/08 02:44:57;;;;;;;;;;;;;;;;;;5092905;28;19908;-80
2022/09/08 02:47:22;;;;;;;;;;;;;;;;;;5091245;28;19916;-79
2022/09/08 02:49:47;;;;;;;;;;;;;;;;;;5076432;28;20036;-79
2022/09/08 02:52:13;;;;;;;;;;;;;;;;;;5088841;28;19927;-79
2022/09/08 02:54:38;;;;;;;;;;;;;;;;;;5093242;28;20287;-79
2022/09/08 02:57:04;;;;;;;;;;;;;;;;;;5092994;28;19947;-80
2022/09/08 02:59:29;;;;;;;;;;;;;;;;;;5094540;28;19912;-79
2022/09/08 03:01:54;;;;;;;;;;;;;;;;;;5093104;28;19961;-79
2022/09/08 03:04:20;;;;;;;;;;;;;;;;;;5094665;28;19919;-78
2022/09/08 03:06:45;;;;;;;;;;;;;;;;;;5092889;28;19912;-79
2022/09/08 03:09:10;;;;;;;;;;;;;;;;;;5094132;28;19912;-78
2022/09/08 03:11:36;;;;;;;;;;;;;;;;;;5094316;28;19972;-79
2022/09/08 03:14:01;;;;;;;;;;;;;;;;;;5092025;28;19907;-79
2022/09/08 03:16:27;;;;;;;;;;;;;;;;;;5075800;28;19912;-80
2022/09/08 03:18:52;;;;;;;;;;;;;;;;;;5089621;28;19914;-78
2022/09/08 03:21:17;;;;;;;;;;;;;;;;;;5085294;28;19912;-79
2022/09/08 03:23:43;;;;;;;;;;;;;;;;;;5088649;28;19912;-79
2022/09/08 03:26:08;;;;;;;;;;;;;;;;;;5088626;28;19912;-80
2022/09/08 03:28:33;;;;;;;;;;;;;;;;;;5073662;28;19917;-79
2022/09/08 03:30:59;;;;;;;;;;;;;;;;;;5056837;28;19912;-79
2022/09/08 03:33:24;;;;;;;;;;;;;;;;;;5067123;28;19908;-80
2022/09/08 03:35:49;;;;;;;;;;;;;;;;;;5073081;28;19962;-79
2022/09/08 03:38:15;;;;;;;;;;;;;;;;;;5073614;28;19908;-79
2022/09/08 03:40:41;;;;;;;;;;;;;;;;;;5033540;28;19917;-79
2022/09/08 03:43:07;;;;;;;;;;;;;;;;;;5071183;28;19908;-80
2022/09/08 03:45:33;;;;;;;;;;;;;;;;;;5038885;28;19912;-79
2022/09/08 03:47:59;;;;;;;;;;;;;;;;;;5056103;28;19908;-80
2022/09/08 03:50:24;;;;;;;;;;;;;;;;;;5054266;28;19935;-78
2022/09/08 03:52:49;;;;;;;;;;;;;;;;;;5055652;28;19916;-80
2022/09/08 03:55:15;;;;;;;;;;;;;;;;;;5053960;28;19951;-79
2022/09/08 03:57:40;;;;;;;;;;;;;;;;;;5043525;28;19912;-79
2022/09/08 04:00:06;;;;;;;;;;;;;;;;;;5052198;28;19959;-80
2022/09/08 04:02:37;;;;;;;;;;;;;;;;;;5058019;28;19908;-80
2022/09/08 04:05:02;;;;;;;;;;;;;;;;;;5039072;28;20015;-78
2022/09/08 04:07:27;;;;;;;;;;;;;;;;;;5065725;28;19913;-79
2022/09/08 04:09:53;;;;;;;;;;;;;;;;;;5061712;28;19923;-80
2022/09/08 04:12:18;;;;;;;;;;;;;;;;;;5073531;28;19908;-80
2022/09/08 04:14:44;;;;;;;;;;;;;;;;;;5034543;28;19917;-81
2022/09/08 04:17:09;;;;;;;;;;;;;;;;;;5065261;28;19908;-80
2022/09/08 04:19:34;;;;;;;;;;;;;;;;;;5070899;28;19912;-81
2022/09/08 04:22:00;;;;;;;;;;;;;;;;;;5055528;28;19912;-79
2022/09/08 04:24:25;;;;;;;;;;;;;;;;;;5071646;28;19912;-81
2022/09/08 04:26:50;;;;;;;;;;;;;;;;;;5071299;28;20006;-81
2022/09/08 04:29:16;;;;;;;;;;;;;;;;;;5054742;28;19952;-81
2022/09/08 04:31:41;;;;;;;;;;;;;;;;;;5054534;28;20418;-81
2022/09/08 04:34:06;;;;;;;;;;;;;;;;;;5054806;28;19912;-80
2022/09/08 04:36:32;;;;;;;;;;;;;;;;;;5072972;28;20003;-80
2022/09/08 04:38:57;;;;;;;;;;;;;;;;;;5054776;28;20401;-80
2022/09/08 04:41:24;;;;;;;;;;;;;;;;;;5073093;28;19909;-81
2022/09/08 04:43:49;;;;;;;;;;;;;;;;;;5053905;28;20015;-79
2022/09/08 04:46:14;;;;;;;;;;;;;;;;;;5073927;28;19961;-81
2022/09/08 04:48:40;;;;;;;;;;;;;;;;;;5072615;28;20397;-80
2022/09/08 04:51:06;;;;;;;;;;;;;;;;;;5038503;28;19912;-81
2022/09/08 04:53:31;;;;;;;;;;;;;;;;;;5070060;28;19912;-82
2022/09/08 04:55:56;;;;;;;;;;;;;;;;;;5055169;28;19918;-81
2022/09/08 04:58:22;;;;;;;;;;;;;;;;;;5069651;28;19961;-81
2022/09/08 05:00:47;;;;;;;;;;;;;;;;;;5055916;28;19957;-82
2022/09/08 05:03:13;;;;;;;;;;;;;;;;;;5038167;28;19962;-79
2022/09/08 05:05:38;;;;;;;;;;;;;;;;;;5054805;28;19915;-80
2022/09/08 05:08:04;;;;;;;;;;;;;;;;;;5068556;28;20422;-80
2022/09/08 05:10:31;;;;;;;;;;;;;;;;;;5073258;28;20007;-82
2022/09/08 05:12:56;;;;;;;;;;;;;;;;;;5072066;28;19912;-82
2022/09/08 05:15:22;;;;;;;;;;;;;;;;;;5073687;28;19916;-84
2022/09/08 05:17:48;;;;;;;;;;;;;;;;;;5052258;28;20011;-80
2022/09/08 05:20:13;;;;;;;;;;;;;;;;;;5073231;28;20343;-81
2022/09/08 05:22:38;;;;;;;;;;;;;;;;;;5055863;28;19919;-80
2022/09/08 05:25:04;;;;;;;;;;;;;;;;;;5074047;28;20002;-81
2022/09/08 05:27:29;;;;;;;;;;;;;;;;;;5038020;28;20342;-80
2022/09/08 05:29:54;;;;;;;;;;;;;;;;;;5067944;28;20019;-81
2022/09/08 05:32:20;;;;;;;;;;;;;;;;;;5072203;28;19916;-81
2022/09/08 05:34:45;;;;;;;;;;;;;;;;;;5073553;28;20450;-81
2022/09/08 05:37:10;;;;;;;;;;;;;;;;;;5050587;28;20312;-79
2022/09/08 05:39:36;;;;;;;;;;;;;;;;;;5073203;28;19912;-80
2022/09/08 05:42:01;;;;;;;;;;;;;;;;;;5067461;28;19912;-79
2022/09/08 05:44:26;;;;;;;;;;;;;;;;;;5071919;28;19908;-80
2022/09/08 05:46:52;;;;;;;;;;;;;;;;;;5071990;28;19912;-80
2022/09/08 05:49:18;;;;;;;;;;;;;;;;;;5073400;28;19912;-79
2022/09/08 05:51:43;;;;;;;;;;;;;;;;;;5052018;28;19917;-80
2022/09/08 05:54:08;;;;;;;;;;;;;;;;;;5034503;28;19920;-81
2022/09/08 05:56:34;;;;;;;;;;;;;;;;;;5073916;28;20010;-81
2022/09/08 05:59:00;;;;;;;;;;;;;;;;;;5055549;28;19920;-80
2022/09/08 06:01:25;;;;;;;;;;;;;;;;;;5075134;28;20294;-82
2022/09/08 06:03:51;;;;;;;;;;;;;;;;;;5055478;28;19912;-82
2022/09/08 06:06:17;;;;;;;;;;;;;;;;;;5059597;28;19920;-83
2022/09/08 06:08:43;;;;;;;;;;;;;;;;;;5077530;28;20386;-84
2022/09/08 06:11:09;;;;;;;;;;;;;;;;;;5056373;28;20007;-80
2022/09/08 06:13:34;;;;;;;;;;;;;;;;;;5064286;28;19909;-83
2022/09/08 06:16:00;;;;;;;;;;;;;;;;;;5038318;28;19923;-83
2022/09/08 06:18:26;;;;;;;;;;;;;;;;;;5057448;28;20011;-81
2022/09/08 06:20:54;;;;;;;;;;;;;;;;;;5043164;28;19923;-82
2022/09/08 06:23:20;;;;;;;;;;;;;;;;;;5080472;28;20426;-82
2022/09/08 06:25:45;;;;;;;;;;;;;;;;;;5076395;28;20590;-82
2022/09/08 06:28:11;;;;;;;;;;;;;;;;;;5085834;28;19919;-81
2022/09/08 06:30:37;;;;;;;;;;;;;;;;;;5095062;28;19927;-80
2022/09/08 06:33:02;;;;;;;;;;;;;;;;;;5093843;28;19994;-82
2022/09/08 06:35:28;;;;;;;;;;;;;;;;;;5092122;28;19912;-81
2022/09/08 06:37:53;;;;;;;;;;;;;;;;;;5089225;28;19947;-80
2022/09/08 06:40:19;;;;;;;;;;;;;;;;;;5097439;28;19951;-82
2022/09/08 06:42:44;;;;;;;;;;;;;;;;;;5095487;28;19912;-80
2022/09/08 06:45:09;;;;;;;;;;;;;;;;;;5096088;28;19966;-80
2022/09/08 06:47:37;;;;;;;;;;;;;;;;;;5099581;28;19912;-84
2022/09/08 06:50:02;;;;;;;;;;;;;;;;;;5079151;28;19919;-81
2022/09/08 06:52:28;;;;;;;;;;;;;;;;;;5094552;28;20410;-82
2022/09/08 06:54:53;;;;;;;;;;;;;;;;;;5077485;28;20378;-82
2022/09/08 06:57:18;;;;;;;;;;;;;;;;;;5095893;28;20316;-82
2022/09/08 06:59:44;;;;;;;;;;;;;;;;;;5078557;28;19908;-82
2022/09/08 07:02:09;;;;;;;;;;;;;;;;;;5088435;28;19912;-81
2022/09/08 07:04:34;;;;;;;;;;;;;;;;;;5084141;28;20371;-81
2022/09/08 07:07:00;;;;;;;;;;;;;;;;;;5091169;28;19923;-81
2022/09/08 07:09:25;;;;;;;;;;;;;;;;;;5087801;28;20362;-81
2022/09/08 07:11:51;;;;;;;;;;;;;;;;;;5085518;28;20406;-81
2022/09/08 07:14:17;;;;;;;;;;;;;;;;;;5075363;28;19908;-81
2022/09/08 07:16:42;;;;;;;;;;;;;;;;;;5095530;28;20301;-81
2022/09/08 07:19:08;;;;;;;;;;;;;;;;;;5096791;28;19914;-79
2022/09/08 07:21:34;;;;;;;;;;;;;;;;;;5095589;28;19965;-82
2022/09/08 07:23:59;;;;;;;;;;;;;;;;;;5093982;28;19916;-81
2022/09/08 07:26:25;;;;;;;;;;;;;;;;;;5095025;28;19916;-82
2022/09/08 07:28:51;;;;;;;;;;;;;;;;;;5061688;28;19967;-82
2022/09/08 07:31:16;;;;;;;;;;;;;;;;;;5033812;28;20295;-81
2022/09/08 07:33:41;;;;;;;;;;;;;;;;;;5057317;28;19908;-81
2022/09/08 07:36:10;;;;;;;;;;;;;;;;;;5056733;28;20367;-86
2022/09/08 07:38:36;;;;;;;;;;;;;;;;;;5043989;28;20007;-81
2022/09/08 07:41:01;;;;;;;;;;;;;;;;;;5058674;28;19962;-82
2022/09/08 07:43:26;;;;;;;;;;;;;;;;;;5064968;28;20491;-83
2022/09/08 07:45:52;;;;;;;;;;;;;;;;;;5063857;28;20411;-85
2022/09/08 07:48:17;;;;;;;;;;;;;;;;;;5056833;28;19939;-81
2022/09/08 07:51:08;;;;;;;;;;;;;;;;;;5078017;28;19927;-83
2022/09/08 07:53:34;;;;;;;;;;;;;;;;;;5081208;28;19912;-82
2022/09/08 07:55:59;;;;;;;;;;;;;;;;;;5072553;28;19951;-81
2022/09/08 07:58:26;;;;;;;;;;;;;;;;;;5092062;28;19911;-85
2022/09/08 08:00:52;;;;;;;;;;;;;;;;;;5043087;28;20367;-81
2022/09/08 08:03:17;;;;;;;;;;;;;;;;;;5080496;28;19912;-81
2022/09/08 08:05:43;;;;;;;;;;;;;;;;;;5042315;28;20355;-81
2022/09/08 08:08:08;;;;;;;;;;;;;;;;;;5074327;28;19912;-82
2022/09/08 08:10:34;;;;;;;;;;;;;;;;;;5056848;28;19919;-83
2022/09/08 08:12:59;;;;;;;;;;;;;;;;;;5057041;28;19912;-80
2022/09/08 08:15:25;;;;;;;;;;;;;;;;;;5074395;28;19916;-81
2022/09/08 08:17:50;;;;;;;;;;;;;;;;;;5075320;28;19916;-82
2022/09/08 08:20:16;;;;;;;;;;;;;;;;;;5070118;28;19915;-84
2022/09/08 08:22:41;;;;;;;;;;;;;;;;;;5032244;28;20379;-81
2022/09/08 08:25:06;;;;;;;;;;;;;;;;;;5058431;28;19943;-82
2022/09/08 08:27:32;;;;;;;;;;;;;;;;;;5073951;28;19936;-81
2022/09/08 08:29:57;;;;;;;;;;;;;;;;;;5093885;28;20370;-82
2022/09/08 08:32:23;;;;;;;;;;;;;;;;;;5093943;28;19935;-83
2022/09/08 08:34:49;;;;;;;;;;;;;;;;;;5087318;28;20045;-81
2022/09/08 08:37:17;;;;;;;;;;;;;;;;;;5086857;28;20396;-83
2022/09/08 08:39:45;;;;;;;;;;;;;;;;;;5094353;28;19912;-83
2022/09/08 08:42:11;;;;;;;;;;;;;;;;;;5078248;28;19916;-82
2022/09/08 08:44:36;;;;;;;;;;;;;;;;;;5084454;28;19916;-81
2022/09/08 08:47:01;;;;;;;;;;;;;;;;;;5079556;28;19912;-81
2022/09/08 08:49:27;;;;;;;;;;;;;;;;;;5075410;28;19959;-83
2022/09/08 08:51:53;;;;;;;;;;;;;;;;;;5099849;28;19939;-84
2022/09/08 08:54:19;;;;;;;;;;;;;;;;;;5069993;28;19954;-83
2022/09/08 08:56:45;;;;;;;;;;;;;;;;;;5090304;28;20267;-82
2022/09/08 08:59:10;;;;;;;;;;;;;;;;;;5091955;28;19953;-83
2022/09/08 09:01:35;;;;;;;;;;;;;;;;;;5093849;28;19912;-82
2022/09/08 09:04:01;;;;;;;;;;;;;;;;;;5096152;28;19908;-82
2022/09/08 09:06:26;;;;;;;;;;;;;;;;;;5095338;28;19915;-81
2022/09/08 09:08:51;;;;;;;;;;;;;;;;;;5094379;28;19919;-83
2022/09/08 09:11:17;;;;;;;;;;;;;;;;;;5095992;28;20328;-80
2022/09/08 09:13:42;;;;;;;;;;;;;;;;;;5067454;28;19916;-85
2022/09/08 09:16:08;;;;;;;;;;;;;;;;;;5077688;28;19923;-83
2022/09/08 09:18:33;;;;;;;;;;;;;;;;;;5084609;28;20370;-85
2022/09/08 09:21:00;;;;;;;;;;;;;;;;;;5097889;28;19912;-83
2022/09/08 09:23:25;;;;;;;;;;;;;;;;;;5084959;28;19908;-85
2022/09/08 09:25:50;;;;;;;;;;;;;;;;;;5091912;28;20420;-81
2022/09/08 09:28:16;;;;;;;;;;;;;;;;;;5091861;28;19920;-86
2022/09/08 09:30:41;;;;;;;;;;;;;;;;;;5083963;28;19916;-81
2022/09/08 09:33:06;;;;;;;;;;;;;;;;;;5082604;28;19908;-80
2022/09/08 09:35:32;;;;;;;;;;;;;;;;;;5086339;28;19962;-81
2022/09/08 09:37:57;;;;;;;;;;;;;;;;;;5063755;28;20458;-81
2022/09/08 09:40:23;;;;;;;;;;;;;;;;;;5091383;28;19952;-83
2022/09/08 09:42:48;;;;;;;;;;;;;;;;;;5085416;28;20382;-81
2022/09/08 09:45:13;;;;;;;;;;;;;;;;;;5085947;28;19919;-82
2022/09/08 09:47:39;;;;;;;;;;;;;;;;;;5085626;28;20381;-81
2022/09/08 09:50:04;;;;;;;;;;;;;;;;;;5097861;28;19915;-81
2022/09/08 09:52:30;;;;;;;;;;;;;;;;;;5096345;28;20371;-80
2022/09/08 09:54:55;;;;;;;;;;;;;;;;;;5095776;28;19912;-83
2022/09/08 09:57:21;;;;;;;;;;;;;;;;;;5094872;28;19907;-84
2022/09/08 09:59:48;;;;;;;;;;;;;;;;;;5086188;28;20337;-84
2022/09/08 10:02:13;;;;;;;;;;;;;;;;;;5097402;28;19914;-81
2022/09/08 10:04:39;;;;;;;;;;;;;;;;;;5095601;28;19912;-80
2022/09/08 10:07:04;;;;;;;;;;;;;;;;;;5095174;28;19940;-85
2022/09/08 10:09:29;;;;;;;;;;;;;;;;;;5096894;28;19920;-80
2022/09/08 10:11:55;;;;;;;;;;;;;;;;;;5090266;28;19946;-82
2022/09/08 10:14:21;;;;;;;;;;;;;;;;;;5082410;28;19963;-83
2022/09/08 10:16:47;;;;;;;;;;;;;;;;;;5098510;28;19937;-83
2022/09/08 10:19:12;;;;;;;;;;;;;;;;;;5077959;28;20486;-82
2022/09/08 10:21:41;;;;;;;;;;;;;;;;;;5094499;28;20290;-86
2022/09/08 10:24:06;;;;;;;;;;;;;;;;;;5096672;28;19919;-82
2022/09/08 10:26:31;;;;;;;;;;;;;;;;;;5090200;28;19916;-82
2022/09/08 10:28:57;;;;;;;;;;;;;;;;;;5095469;28;19916;-80
2022/09/08 10:31:22;;;;;;;;;;;;;;;;;;5096270;28;19911;-81
2022/09/08 10:33:47;;;;;;;;;;;;;;;;;;5098253;28;19912;-81
2022/09/08 10:36:13;;;;;;;;;;;;;;;;;;5096132;28;19914;-84
2022/09/08 10:38:38;;;;;;;;;;;;;;;;;;5095463;28;19916;-84
2022/09/08 10:41:04;;;;;;;;;;;;;;;;;;5095221;28;19908;-82
2022/09/08 10:43:29;;;;;;;;;;;;;;;;;;5095913;28;20309;-82
2022/09/08 10:45:54;;;;;;;;;;;;;;;;;;5097148;28;20092;-82
2022/09/08 10:48:20;;;;;;;;;;;;;;;;;;5096282;28;19915;-81
2022/09/08 10:50:45;;;;;;;;;;;;;;;;;;5088434;28;20436;-80
2022/09/08 10:53:11;;;;;;;;;;;;;;;;;;5095971;28;19912;-83
2022/09/08 10:55:36;;;;;;;;;;;;;;;;;;5077653;28;19908;-83
2022/09/08 10:58:02;;;;;;;;;;;;;;;;;;5087227;28;19916;-84
2022/09/08 11:00:28;;;;;;;;;;;;;;;;;;5095852;28;19975;-83
2022/09/08 11:02:53;;;;;;;;;;;;;;;;;;5077142;28;20003;-86
2022/09/08 11:05:18;;;;;;;;;;;;;;;;;;5066936;28;20393;-82
2022/09/08 11:07:44;;;;;;;;;;;;;;;;;;5094590;28;20306;-82
2022/09/08 11:10:09;;;;;;;;;;;;;;;;;;5096486;28;19923;-81
2022/09/08 11:12:34;;;;;;;;;;;;;;;;;;5093867;28;19919;-82
2022/09/08 11:15:00;;;;;;;;;;;;;;;;;;5062742;28;19919;-82
2022/09/08 11:17:26;;;;;;;;;;;;;;;;;;5078642;28;19923;-81
2022/09/08 11:19:52;;;;;;;;;;;;;;;;;;5096492;28;19915;-83
2022/09/08 11:22:17;;;;;;;;;;;;;;;;;;5093915;28;19912;-82
2022/09/08 11:24:43;;;;;;;;;;;;;;;;;;5095397;28;19908;-82
2022/09/08 11:27:08;;;;;;;;;;;;;;;;;;5093476;28;20019;-81
2022/09/08 11:29:34;;;;;;;;;;;;;;;;;;5093224;28;20009;-82
2022/09/08 11:32:01;;;;;;;;;;;;;;;;;;5095469;28;20120;-79
2022/09/08 11:34:26;;;;;;;;;;;;;;;;;;5094594;28;20300;-81
2022/09/08 11:36:52;;;;;;;;;;;;;;;;;;5075361;28;19919;-81
2022/09/08 11:39:17;;;;;;;;;;;;;;;;;;5097044;28;19908;-84
2022/09/08 11:41:42;;;;;;;;;;;;;;;;;;5093590;28;19912;-81
2022/09/08 11:44:08;;;;;;;;;;;;;;;;;;5094177;28;20387;-82
2022/09/08 11:46:34;;;;;;;;;;;;;;;;;;5094854;28;20303;-82
2022/09/08 11:48:59;;;;;;;;;;;;;;;;;;5093605;28;19942;-81
2022/09/08 11:51:24;;;;;;;;;;;;;;;;;;5094843;28;19962;-83
2022/09/08 11:53:50;;;;;;;;;;;;;;;;;;5094144;28;20299;-82
2022/09/08 11:56:15;;;;;;;;;;;;;;;;;;5094587;28;19919;-81
2022/09/08 11:58:40;;;;;;;;;;;;;;;;;;5092503;28;19915;-81
2022/09/08 12:01:06;;;;;;;;;;;;;;;;;;5093186;28;19912;-81
2022/09/08 12:03:31;;;;;;;;;;;;;;;;;;5075819;28;19942;-82
2022/09/08 12:05:57;;;;;;;;;;;;;;;;;;5094534;28;19936;-82
2022/09/08 12:08:22;;;;;;;;;;;;;;;;;;5097263;28;19915;-82
2022/09/08 12:10:48;;;;;;;;;;;;;;;;;;5096517;28;19918;-86
2022/09/08 12:13:14;;;;;;;;;;;;;;;;;;5094597;28;19990;-83
2022/09/08 12:15:39;;;;;;;;;;;;;;;;;;5094630;28;20137;-83
2022/09/08 12:18:04;;;;;;;;;;;;;;;;;;5093713;28;19911;-82
2022/09/08 12:20:30;;;;;;;;;;;;;;;;;;5077081;28;20010;-83
2022/09/08 12:22:55;;;;;;;;;;;;;;;;;;5076841;28;19912;-82
2022/09/08 12:25:22;;;;;;;;;;;;;;;;;;5095713;28;19908;-84
2022/09/08 12:27:47;;;;;;;;;;;;;;;;;;5093949;28;19927;-81
2022/09/08 12:30:14;;;;;;;;;;;;;;;;;;5093562;28;20347;-81
2022/09/08 12:32:41;;;;;;;;;;;;;;;;;;5092892;28;19920;-81
2022/09/08 12:35:08;;;;;;;;;;;;;;;;;;5090067;28;19930;-82
2022/09/08 12:37:33;;;;;;;;;;;;;;;;;;5094778;28;20293;-83
2022/09/08 12:39:59;;;;;;;;;;;;;;;;;;5093197;28;19955;-81
2022/09/08 12:42:24;;;;;;;;;;;;;;;;;;5093757;28;19999;-81
2022/09/08 12:44:50;;;;;;;;;;;;;;;;;;5090070;28;19919;-81
2022/09/08 12:47:15;;;;;;;;;;;;;;;;;;5095318;28;19919;-83
2022/09/08 12:49:40;;;;;;;;;;;;;;;;;;5093883;28;19911;-84
2022/09/08 12:52:08;;;;;;;;;;;;;;;;;;5094205;28;19916;-80
2022/09/08 12:54:33;;;;;;;;;;;;;;;;;;5074195;28;19915;-81
2022/09/08 12:56:59;;;;;;;;;;;;;;;;;;5074156;28;19912;-85
2022/09/08 12:59:25;;;;;;;;;;;;;;;;;;5095375;28;19912;-82
2022/09/08 13:01:50;;;;;;;;;;;;;;;;;;5092573;28;19916;-81
2022/09/08 13:04:16;;;;;;;;;;;;;;;;;;5085929;28;19915;-83
2022/09/08 13:06:41;;;;;;;;;;;;;;;;;;5086382;28;19919;-86
2022/09/08 13:09:07;;;;;;;;;;;;;;;;;;5080505;28;20018;-82
2022/09/08 13:11:33;;;;;;;;;;;;;;;;;;5095971;28;19924;-86
2022/09/08 13:13:58;;;;;;;;;;;;;;;;;;5084462;28;19930;-83
2022/09/08 13:16:24;;;;;;;;;;;;;;;;;;5096866;28;19918;-83
2022/09/08 13:18:49;;;;;;;;;;;;;;;;;;5081340;28;19915;-83
2022/09/08 13:21:14;;;;;;;;;;;;;;;;;;5080487;28;19912;-84
2022/09/08 13:23:40;;;;;;;;;;;;;;;;;;5097566;28;19918;-81
2022/09/08 13:26:05;;;;;;;;;;;;;;;;;;5095650;28;19919;-82
2022/09/08 13:28:30;;;;;;;;;;;;;;;;;;5040041;28;19913;-81
2022/09/08 13:30:56;;;;;;;;;;;;;;;;;;5077416;28;19920;-81
2022/09/08 13:33:22;;;;;;;;;;;;;;;;;;5059766;28;19909;-81
2022/09/08 13:35:48;;;;;;;;;;;;;;;;;;5060446;28;20346;-82
2022/09/08 13:38:14;;;;;;;;;;;;;;;;;;5057992;28;19916;-81
2022/09/08 13:40:39;;;;;;;;;;;;;;;;;;5078252;28;19913;-82
2022/09/08 13:43:05;;;;;;;;;;;;;;;;;;5059871;28;20288;-80
2022/09/08 13:45:31;;;;;;;;;;;;;;;;;;5059593;28;19998;-82
2022/09/08 13:47:56;;;;;;;;;;;;;;;;;;5059971;28;19916;-81
2022/09/08 13:50:22;;;;;;;;;;;;;;;;;;5054431;28;19924;-82
2022/09/08 13:52:48;;;;;;;;;;;;;;;;;;5052318;28;19908;-81
2022/09/08 13:55:13;;;;;;;;;;;;;;;;;;5069409;28;19915;-84
2022/09/08 13:57:39;;;;;;;;;;;;;;;;;;5054455;28;20264;-81
2022/09/08 14:00:11;;;;;;;;;;;;;;;;;;5044271;28;19956;-81
2022/09/08 14:02:37;;;;;;;;;;;;;;;;;;5060328;28;19912;-81
2022/09/08 14:05:02;;;;;;;;;;;;;;;;;;5077198;28;19919;-81
2022/09/08 14:07:28;;;;;;;;;;;;;;;;;;5059207;28;19912;-82
2022/09/08 14:09:53;;;;;;;;;;;;;;;;;;5058574;28;20001;-82
2022/09/08 14:12:18;;;;;;;;;;;;;;;;;;5057982;28;19912;-83
2022/09/08 14:14:47;;;;;;;;;;;;;;;;;;5039184;28;19908;-84
2022/09/08 14:17:15;;;;;;;;;;;;;;;;;;5053797;28;19951;-85
2022/09/08 14:19:44;;;;;;;;;;;;;;;;;;5041358;28;19955;-81
2022/09/08 14:22:09;;;;;;;;;;;;;;;;;;5056927;28;20010;-85
2022/09/08 14:24:35;;;;;;;;;;;;;;;;;;5047182;28;19948;-83
2022/09/08 14:27:00;;;;;;;;;;;;;;;;;;5090550;28;19999;-81
2022/09/08 14:29:26;;;;;;;;;;;;;;;;;;5070865;28;19916;-81
2022/09/08 14:31:51;;;;;;;;;;;;;;;;;;5087555;28;20347;-81
2022/09/08 14:34:17;;;;;;;;;;;;;;;;;;5077361;28;19958;-80
2022/09/08 14:36:42;;;;;;;;;;;;;;;;;;5067642;28;20401;-83
2022/09/08 14:39:08;;;;;;;;;;;;;;;;;;5043587;28;19915;-82
2022/09/08 14:41:33;;;;;;;;;;;;;;;;;;5069884;28;19912;-82
2022/09/08 14:44:00;;;;;;;;;;;;;;;;;;5054857;28;20007;-81
2022/09/08 14:46:26;;;;;;;;;;;;;;;;;;5045313;28;19919;-82
2022/09/08 14:48:52;;;;;;;;;;;;;;;;;;5059208;28;19912;-80
2022/09/08 14:51:18;;;;;;;;;;;;;;;;;;5070314;28;19920;-81
2022/09/08 14:53:43;;;;;;;;;;;;;;;;;;5036562;28;19931;-81
2022/09/08 14:56:08;;;;;;;;;;;;;;;;;;5073464;28;19919;-82
2022/09/08 14:58:34;;;;;;;;;;;;;;;;;;5055869;28;19944;-83
2022/09/08 15:01:00;;;;;;;;;;;;;;;;;;5037628;28;19916;-81
2022/09/08 15:03:25;;;;;;;;;;;;;;;;;;5046687;28;20368;-81
2022/09/08 15:05:52;;;;;;;;;;;;;;;;;;5075552;28;20007;-81
2022/09/08 15:08:18;;;;;;;;;;;;;;;;;;5025277;28;19982;-80
2022/09/08 15:10:44;;;;;;;;;;;;;;;;;;5075955;28;20025;-80
2022/09/08 15:13:09;;;;;;;;;;;;;;;;;;5073369;28;19912;-81
2022/09/08 15:15:35;;;;;;;;;;;;;;;;;;5075754;28;20357;-83
2022/09/08 15:18:01;;;;;;;;;;;;;;;;;;5044899;28;20330;-85
2022/09/08 15:20:27;;;;;;;;;;;;;;;;;;5063256;28;19912;-83
2022/09/08 15:22:52;;;;;;;;;;;;;;;;;;5087305;28;19908;-79
2022/09/08 15:25:17;;;;;;;;;;;;;;;;;;5075310;28;20379;-81
2022/09/08 15:27:44;;;;;;;;;;;;;;;;;;5063053;28;19916;-81
2022/09/08 15:30:09;;;;;;;;;;;;;;;;;;5073830;28;19920;-81
2022/09/08 15:32:34;;;;;;;;;;;;;;;;;;5095083;28;20363;-79
2022/09/08 15:35:00;;;;;;;;;;;;;;;;;;5095125;28;19916;-84
2022/09/08 15:37:26;;;;;;;;;;;;;;;;;;5078451;28;19907;-81
2022/09/08 15:39:52;;;;;;;;;;;;;;;;;;5077864;28;20275;-80
2022/09/08 15:42:17;;;;;;;;;;;;;;;;;;5095508;28;19930;-80
2022/09/08 15:44:43;;;;;;;;;;;;;;;;;;5094291;28;20442;-80
2022/09/08 15:47:09;;;;;;;;;;;;;;;;;;5090501;28;20301;-81
2022/09/08 15:49:35;;;;;;;;;;;;;;;;;;5094645;28;19919;-81
2022/09/08 15:52:01;;;;;;;;;;;;;;;;;;5089260;28;19942;-81
2022/09/08 15:54:28;;;;;;;;;;;;;;;;;;5095623;28;19912;-79
2022/09/08 15:56:53;;;;;;;;;;;;;;;;;;5094228;28;19915;-81
2022/09/08 15:59:19;;;;;;;;;;;;;;;;;;5093088;28;20235;-80
2022/09/08 16:01:45;;;;;;;;;;;;;;;;;;5093327;28;19907;-78
2022/09/08 16:04:10;;;;;;;;;;;;;;;;;;5086668;28;19916;-81
2022/09/08 16:06:36;;;;;;;;;;;;;;;;;;5075858;28;19908;-79
2022/09/08 16:09:01;;;;;;;;;;;;;;;;;;5093674;28;19916;-78
2022/09/08 16:11:28;;;;;;;;;;;;;;;;;;5094386;28;19908;-80
2022/09/08 16:13:53;;;;;;;;;;;;;;;;;;5094112;28;19919;-84
2022/09/08 16:16:19;;;;;;;;;;;;;;;;;;5092225;28;20370;-78
2022/09/08 16:18:44;;;;;;;;;;;;;;;;;;5092936;28;19912;-78
2022/09/08 16:21:09;;;;;;;;;;;;;;;;;;5086814;28;19912;-79
2022/09/08 16:23:35;;;;;;;;;;;;;;;;;;5086402;28;19912;-79
2022/09/08 16:26:05;;;;;;;;;;;;;;;;;;5090730;28;19990;-77
2022/09/08 16:28:32;;;;;;;;;;;;;;;;;;5062915;28;19916;-77
2022/09/08 16:30:57;;;;;;;;;;;;;;;;;;5070116;28;19916;-77
2022/09/08 16:33:23;;;;;;;;;;;;;;;;;;5073204;28;19916;-78
2022/09/08 16:35:48;;;;;;;;;;;;;;;;;;5072905;28;20018;-78
2022/09/08 16:38:13;;;;;;;;;;;;;;;;;;5069931;28;19912;-78
2022/09/08 16:40:39;;;;;;;;;;;;;;;;;;5069335;28;19908;-79